Terminal Aerodrome Forecast
Issued by NWS

Current Version | Previous Version | Graphics & Text | Print | Product List | Glossary On
Versions: 1 2 3 4 5 6 7 8 9 10 11 12 13 14 15 16 17 18 19 20 21 22 23
000
FTUS41 KRLX 150900 AAA
TAFCKB
TAF AMD
KCKB 150905Z 1509/1606 18004KT 4SM BR BKN009 OVC013
     FM151200 16004KT P6SM OVC014
     FM151500 VRB03KT P6SM OVC025
     FM151800 00000KT P6SM SCT035 SCT200=

USA.gov is the U.S. government's official web portal to all federal, state and local government web resources and services.